sensor_id;sensor_type;location;lat;lon;timestamp;pressure;altitude;pressure_sealevel;temperature;humidity
31595;BME280;18200;48.726;8.892;2023-05-23T00:03:23;96620.75;;;30.19;35.05
31595;BME280;18200;48.726;8.892;2023-05-23T00:07:24;96616.91;;;29.91;35.57
31595;BME280;18200;48.726;8.892;2023-05-23T00:11:25;96619.75;;;29.97;35.31
31595;BME280;18200;48.726;8.892;2023-05-23T00:15:28;96618.09;;;29.84;36.33
31595;BME280;18200;48.726;8.892;2023-05-23T00:19:29;96623.75;;;29.55;36.41
31595;BME280;18200;48.726;8.892;2023-05-23T00:23:29;96621.28;;;29.98;36.26
31595;BME280;18200;48.726;8.892;2023-05-23T00:27:29;96614.84;;;29.86;36.68
31595;BME280;18200;48.726;8.892;2023-05-23T00:31:30;96613.53;;;30.27;35.08
31595;BME280;18200;48.726;8.892;2023-05-23T00:35:30;96610.81;;;30.33;35.81
31595;BME280;18200;48.726;8.892;2023-05-23T00:39:31;96615.69;;;30.18;34.98
31595;BME280;18200;48.726;8.892;2023-05-23T00:43:31;96615.25;;;29.99;36.13
31595;BME280;18200;48.726;8.892;2023-05-23T00:47:32;96620.38;;;30.06;36.32
31595;BME280;18200;48.726;8.892;2023-05-23T00:51:32;96624.22;;;30.14;35.86
31595;BME280;18200;48.726;8.892;2023-05-23T00:55:33;96616.56;;;30.49;35.48
31595;BME280;18200;48.726;8.892;2023-05-23T00:59:34;96620.47;;;30.37;35.05
31595;BME280;18200;48.726;8.892;2023-05-23T01:03:36;96631.53;;;30.63;34.52
31595;BME280;18200;48.726;8.892;2023-05-23T01:07:36;96637.09;;;30.37;35.50
31595;BME280;18200;48.726;8.892;2023-05-23T01:21:08;96635.97;;;30.49;35.10
31595;BME280;18200;48.726;8.892;2023-05-23T01:29:44;96638.31;;;29.90;36.86
31595;BME280;18200;48.726;8.892;2023-05-23T01:33:47;96640.41;;;30.67;36.14
31595;BME280;18200;48.726;8.892;2023-05-23T01:37:49;96643.69;;;30.20;35.88
31595;BME280;18200;48.726;8.892;2023-05-23T01:41:50;96638.69;;;31.01;35.22
31595;BME280;18200;48.726;8.892;2023-05-23T01:45:55;96641.13;;;30.88;36.06
31595;BME280;18200;48.726;8.892;2023-05-23T01:49:58;96644.50;;;30.46;37.70
31595;BME280;18200;48.726;8.892;2023-05-23T01:53:59;96646.22;;;30.95;36.28
31595;BME280;18200;48.726;8.892;2023-05-23T01:58:00;96652.03;;;30.97;36.79
31595;BME280;18200;48.726;8.892;2023-05-23T02:02:02;96653.69;;;31.51;36.10
31595;BME280;18200;48.726;8.892;2023-05-23T02:06:03;96646.56;;;29.85;40.26
31595;BME280;18200;48.726;8.892;2023-05-23T02:10:06;96640.16;;;31.27;37.13
31595;BME280;18200;48.726;8.892;2023-05-23T02:14:08;96642.22;;;31.01;37.57
31595;BME280;18200;48.726;8.892;2023-05-23T02:18:08;96635.19;;;30.03;39.73
31595;BME280;18200;48.726;8.892;2023-05-23T02:22:13;96637.41;;;30.71;38.23
31595;BME280;18200;48.726;8.892;2023-05-23T02:26:13;96647.72;;;31.69;36.50
31595;BME280;18200;48.726;8.892;2023-05-23T02:30:13;96643.97;;;30.99;37.35
31595;BME280;18200;48.726;8.892;2023-05-23T02:34:14;96636.78;;;31.55;36.60
31595;BME280;18200;48.726;8.892;2023-05-23T02:38:14;96638.16;;;31.70;36.96
31595;BME280;18200;48.726;8.892;2023-05-23T02:42:15;96652.34;;;30.47;38.40
31595;BME280;18200;48.726;8.892;2023-05-23T02:46:16;96644.03;;;30.79;38.36
31595;BME280;18200;48.726;8.892;2023-05-23T02:50:16;96651.84;;;31.06;37.76
31595;BME280;18200;48.726;8.892;2023-05-23T02:54:16;96661.63;;;30.24;38.97
31595;BME280;18200;48.726;8.892;2023-05-23T02:58:17;96664.41;;;30.24;39.20
31595;BME280;18200;48.726;8.892;2023-05-23T03:02:18;96657.09;;;31.35;37.18
31595;BME280;18200;48.726;8.892;2023-05-23T03:06:18;96657.66;;;31.39;37.32
31595;BME280;18200;48.726;8.892;2023-05-23T03:10:22;96659.22;;;30.12;39.17
31595;BME280;18200;48.726;8.892;2023-05-23T03:14:22;96665.41;;;29.46;41.11
31595;BME280;18200;48.726;8.892;2023-05-23T03:18:23;96662.03;;;29.07;41.65
31595;BME280;18200;48.726;8.892;2023-05-23T03:22:23;96670.59;;;29.39;40.73
31595;BME280;18200;48.726;8.892;2023-05-23T03:26:23;96670.94;;;28.15;43.11
31595;BME280;18200;48.726;8.892;2023-05-23T03:30:24;96668.91;;;30.42;39.23
31595;BME280;18200;48.726;8.892;2023-05-23T03:34:24;96662.16;;;30.03;39.66
31595;BME280;18200;48.726;8.892;2023-05-23T03:38:26;96662.03;;;30.37;38.69
31595;BME280;18200;48.726;8.892;2023-05-23T03:42:27;96663.25;;;30.11;39.37
31595;BME280;18200;48.726;8.892;2023-05-23T03:46:27;96667.78;;;29.19;41.53
31595;BME280;18200;48.726;8.892;2023-05-23T03:50:28;96662.00;;;30.57;38.84
31595;BME280;18200;48.726;8.892;2023-05-23T03:54:28;96667.84;;;29.39;40.46
31595;BME280;18200;48.726;8.892;2023-05-23T03:58:29;96675.16;;;29.42;40.86
31595;BME280;18200;48.726;8.892;2023-05-23T04:02:34;96673.78;;;29.52;41.16
31595;BME280;18200;48.726;8.892;2023-05-23T04:06:35;96675.19;;;29.12;41.74
31595;BME280;18200;48.726;8.892;2023-05-23T04:10:35;96682.91;;;29.92;40.23
31595;BME280;18200;48.726;8.892;2023-05-23T04:14:36;96679.19;;;29.11;41.52
31595;BME280;18200;48.726;8.892;2023-05-23T04:18:38;96673.69;;;30.21;39.57
31595;BME280;18200;48.726;8.892;2023-05-23T04:22:41;96680.59;;;29.71;40.46
31595;BME280;18200;48.726;8.892;2023-05-23T04:26:42;96684.44;;;29.24;41.50
31595;BME280;18200;48.726;8.892;2023-05-23T04:30:43;96688.50;;;29.43;40.69
31595;BME280;18200;48.726;8.892;2023-05-23T04:34:44;96686.03;;;30.20;39.29
31595;BME280;18200;48.726;8.892;2023-05-23T04:38:45;96696.16;;;28.46;42.83
31595;BME280;18200;48.726;8.892;2023-05-23T04:42:45;96696.44;;;29.85;40.08
31595;BME280;18200;48.726;8.892;2023-05-23T04:46:56;96695.03;;;29.40;41.14
31595;BME280;18200;48.726;8.892;2023-05-23T04:51:03;96697.25;;;30.51;39.14
31595;BME280;18200;48.726;8.892;2023-05-23T04:55:08;96704.94;;;29.47;41.09
31595;BME280;18200;48.726;8.892;2023-05-23T04:59:09;96710.47;;;28.45;42.06
31595;BME280;18200;48.726;8.892;2023-05-23T05:03:10;96723.13;;;29.19;41.06
31595;BME280;18200;48.726;8.892;2023-05-23T05:07:15;96715.56;;;29.04;41.29
31595;BME280;18200;48.726;8.892;2023-05-23T05:11:16;96716.13;;;27.55;44.61
31595;BME280;18200;48.726;8.892;2023-05-23T05:15:17;96724.94;;;29.22;41.51
31595;BME280;18200;48.726;8.892;2023-05-23T05:19:20;96729.94;;;29.52;40.11
31595;BME280;18200;48.726;8.892;2023-05-23T05:23:25;96729.00;;;28.68;41.79
31595;BME280;18200;48.726;8.892;2023-05-23T05:27:28;96730.16;;;28.61;41.77
31595;BME280;18200;48.726;8.892;2023-05-23T05:31:29;96732.97;;;29.20;40.69
31595;BME280;18200;48.726;8.892;2023-05-23T05:35:30;96732.63;;;28.88;41.82
31595;BME280;18200;48.726;8.892;2023-05-23T05:39:31;96740.84;;;28.97;40.74
31595;BME280;18200;48.726;8.892;2023-05-23T05:43:32;96740.28;;;29.23;40.57
31595;BME280;18200;48.726;8.892;2023-05-23T05:47:32;96738.00;;;28.92;40.86
31595;BME280;18200;48.726;8.892;2023-05-23T05:51:33;96740.44;;;28.75;41.43
31595;BME280;18200;48.726;8.892;2023-05-23T05:55:33;96734.66;;;29.81;39.43
31595;BME280;18200;48.726;8.892;2023-05-23T05:59:34;96740.84;;;29.27;40.42
31595;BME280;18200;48.726;8.892;2023-05-23T06:03:34;96743.47;;;29.65;39.30
31595;BME280;18200;48.726;8.892;2023-05-23T06:07:35;96734.41;;;30.59;37.66
31595;BME280;18200;48.726;8.892;2023-05-23T06:11:36;96743.28;;;30.43;38.43
31595;BME280;18200;48.726;8.892;2023-05-23T06:15:40;96739.59;;;28.69;40.86
31595;BME280;18200;48.726;8.892;2023-05-23T06:19:41;96743.66;;;29.76;39.24
31595;BME280;18200;48.726;8.892;2023-05-23T06:23:42;96747.25;;;29.03;39.70
31595;BME280;18200;48.726;8.892;2023-05-23T06:27:43;96753.28;;;29.17;39.73
31595;BME280;18200;48.726;8.892;2023-05-23T06:31:45;96747.22;;;28.36;41.66
31595;BME280;18200;48.726;8.892;2023-05-23T06:35:45;96754.00;;;28.73;40.56
31595;BME280;18200;48.726;8.892;2023-05-23T06:39:45;96756.69;;;29.55;38.63
31595;BME280;18200;48.726;8.892;2023-05-23T06:43:46;96762.00;;;28.09;41.73
31595;BME280;18200;48.726;8.892;2023-05-23T06:47:56;96768.50;;;28.83;40.36
31595;BME280;18200;48.726;8.892;2023-05-23T06:51:58;96777.91;;;27.91;42.24
31595;BME280;18200;48.726;8.892;2023-05-23T06:55:58;96773.91;;;27.92;41.69
31595;BME280;18200;48.726;8.892;2023-05-23T06:59:59;96790.44;;;28.01;42.41
31595;BME280;18200;48.726;8.892;2023-05-23T07:04:00;96789.88;;;27.55;42.86
31595;BME280;18200;48.726;8.892;2023-05-23T07:08:00;96786.84;;;28.33;40.15
31595;BME280;18200;48.726;8.892;2023-05-23T07:12:01;96801.63;;;29.06;39.72
31595;BME280;18200;48.726;8.892;2023-05-23T07:16:02;96807.25;;;28.12;41.23
31595;BME280;18200;48.726;8.892;2023-05-23T07:20:05;96809.09;;;27.31;42.16
31595;BME280;18200;48.726;8.892;2023-05-23T07:24:08;96818.38;;;26.07;44.45
31595;BME280;18200;48.726;8.892;2023-05-23T07:28:09;96815.22;;;27.44;41.17
31595;BME280;18200;48.726;8.892;2023-05-23T07:32:13;96818.63;;;26.58;42.96
31595;BME280;18200;48.726;8.892;2023-05-23T07:36:14;96822.31;;;27.69;40.75
31595;BME280;18200;48.726;8.892;2023-05-23T07:40:15;96811.81;;;28.86;38.68
31595;BME280;18200;48.726;8.892;2023-05-23T07:44:17;96822.22;;;27.54;40.84
31595;BME280;18200;48.726;8.892;2023-05-23T07:48:18;96821.56;;;27.68;39.98
31595;BME280;18200;48.726;8.892;2023-05-23T07:52:19;96810.03;;;28.59;38.56
31595;BME280;18200;48.726;8.892;2023-05-23T07:56:19;96823.09;;;27.70;40.50
31595;BME280;18200;48.726;8.892;2023-05-23T08:00:20;96819.16;;;27.61;39.39
31595;BME280;18200;48.726;8.892;2023-05-23T08:04:28;96833.91;;;27.91;40.17
31595;BME280;18200;48.726;8.892;2023-05-23T08:08:29;96825.28;;;27.65;39.70
31595;BME280;18200;48.726;8.892;2023-05-23T08:12:30;96832.09;;;27.46;39.79
31595;BME280;18200;48.726;8.892;2023-05-23T08:16:41;96840.66;;;27.30;39.96
31595;BME280;18200;48.726;8.892;2023-05-23T08:20:49;96846.22;;;27.21;40.73
31595;BME280;18200;48.726;8.892;2023-05-23T08:24:50;96848.97;;;27.21;40.17
31595;BME280;18200;48.726;8.892;2023-05-23T08:28:51;96851.50;;;28.03;38.07
31595;BME280;18200;48.726;8.892;2023-05-23T08:32:53;96853.47;;;29.21;36.03
31595;BME280;18200;48.726;8.892;2023-05-23T08:36:54;96855.44;;;26.82;40.10
31595;BME280;18200;48.726;8.892;2023-05-23T08:40:56;96863.22;;;26.07;42.04
31595;BME280;18200;48.726;8.892;2023-05-23T08:45:00;96852.03;;;26.60;41.21
31595;BME280;18200;48.726;8.892;2023-05-23T08:49:01;96868.22;;;26.31;41.73
31595;BME280;18200;48.726;8.892;2023-05-23T08:53:04;96859.69;;;27.97;38.18
31595;BME280;18200;48.726;8.892;2023-05-23T08:57:09;96881.31;;;27.03;40.54
31595;BME280;18200;48.726;8.892;2023-05-23T09:01:16;96876.69;;;27.27;39.15
31595;BME280;18200;48.726;8.892;2023-05-23T09:05:20;96877.03;;;27.98;37.80
31595;BME280;18200;48.726;8.892;2023-05-23T09:09:21;96879.94;;;26.80;39.75
31595;BME280;18200;48.726;8.892;2023-05-23T09:13:23;96877.34;;;26.95;39.42
31595;BME280;18200;48.726;8.892;2023-05-23T09:17:26;96884.59;;;26.43;40.66
31595;BME280;18200;48.726;8.892;2023-05-23T09:21:30;96896.16;;;25.80;41.82
31595;BME280;18200;48.726;8.892;2023-05-23T09:25:46;96895.75;;;26.31;41.68
31595;BME280;18200;48.726;8.892;2023-05-23T09:29:48;96897.41;;;26.95;39.01
31595;BME280;18200;48.726;8.892;2023-05-23T09:33:51;96888.81;;;27.47;38.62
31595;BME280;18200;48.726;8.892;2023-05-23T09:37:53;96895.50;;;29.34;35.79
31595;BME280;18200;48.726;8.892;2023-05-23T09:41:58;96884.28;;;27.77;38.15
31595;BME280;18200;48.726;8.892;2023-05-23T09:46:10;96895.44;;;27.92;37.45
31595;BME280;18200;48.726;8.892;2023-05-23T09:50:11;96909.28;;;27.83;37.30
31595;BME280;18200;48.726;8.892;2023-05-23T09:54:12;96900.00;;;27.08;38.70
31595;BME280;18200;48.726;8.892;2023-05-23T09:58:12;96900.50;;;27.15;38.44
31595;BME280;18200;48.726;8.892;2023-05-23T10:02:15;96901.41;;;27.39;38.30
31595;BME280;18200;48.726;8.892;2023-05-23T10:06:16;96907.28;;;28.58;36.06
31595;BME280;18200;48.726;8.892;2023-05-23T10:10:20;96898.88;;;28.19;37.04
31595;BME280;18200;48.726;8.892;2023-05-23T10:14:21;96898.19;;;28.66;35.41
31595;BME280;18200;48.726;8.892;2023-05-23T10:18:25;96907.31;;;30.07;33.33
31595;BME280;18200;48.726;8.892;2023-05-23T10:22:28;96904.03;;;29.74;33.83
31595;BME280;18200;48.726;8.892;2023-05-23T10:26:29;96901.09;;;29.25;34.16
31595;BME280;18200;48.726;8.892;2023-05-23T10:30:30;96900.56;;;30.08;32.50
31595;BME280;18200;48.726;8.892;2023-05-23T10:34:54;96894.47;;;29.07;34.21
31595;BME280;18200;48.726;8.892;2023-05-23T10:39:03;96893.22;;;27.63;36.90
31595;BME280;18200;48.726;8.892;2023-05-23T10:43:19;96886.72;;;28.97;34.39
31595;BME280;18200;48.726;8.892;2023-05-23T10:47:26;96892.19;;;30.92;31.57
31595;BME280;18200;48.726;8.892;2023-05-23T10:51:37;96889.22;;;30.61;32.63
31595;BME280;18200;48.726;8.892;2023-05-23T10:55:37;96902.38;;;29.24;34.31
31595;BME280;18200;48.726;8.892;2023-05-23T10:59:38;96901.66;;;30.31;32.86
31595;BME280;18200;48.726;8.892;2023-05-23T11:07:46;96900.56;;;29.11;34.06
31595;BME280;18200;48.726;8.892;2023-05-23T11:12:06;96909.53;;;29.30;33.95
31595;BME280;18200;48.726;8.892;2023-05-23T11:16:26;96920.34;;;29.43;33.37
31595;BME280;18200;48.726;8.892;2023-05-23T11:20:29;96918.97;;;28.53;34.69
31595;BME280;18200;48.726;8.892;2023-05-23T11:24:51;96914.50;;;29.99;31.87
31595;BME280;18200;48.726;8.892;2023-05-23T11:28:56;96912.66;;;30.25;31.77
31595;BME280;18200;48.726;8.892;2023-05-23T11:32:56;96913.59;;;30.22;31.12
31595;BME280;18200;48.726;8.892;2023-05-23T11:36:57;96912.94;;;30.27;30.94
31595;BME280;18200;48.726;8.892;2023-05-23T11:40:59;96909.84;;;30.75;30.54
31595;BME280;18200;48.726;8.892;2023-05-23T11:44:59;96905.31;;;30.92;30.12
31595;BME280;18200;48.726;8.892;2023-05-23T11:49:00;96906.44;;;29.81;31.73
31595;BME280;18200;48.726;8.892;2023-05-23T11:53:00;96902.38;;;29.53;32.83
31595;BME280;18200;48.726;8.892;2023-05-23T11:57:01;96903.94;;;29.15;33.69
31595;BME280;18200;48.726;8.892;2023-05-23T12:01:03;96900.47;;;29.59;33.26
31595;BME280;18200;48.726;8.892;2023-05-23T12:05:08;96906.22;;;29.84;32.29
31595;BME280;18200;48.726;8.892;2023-05-23T12:09:10;96908.91;;;29.79;32.33
31595;BME280;18200;48.726;8.892;2023-05-23T12:13:11;96903.75;;;30.71;31.68
31595;BME280;18200;48.726;8.892;2023-05-23T12:17:12;96901.47;;;31.35;29.43
31595;BME280;18200;48.726;8.892;2023-05-23T12:21:12;96899.03;;;29.92;31.13
31595;BME280;18200;48.726;8.892;2023-05-23T12:25:13;96895.22;;;31.14;29.29
31595;BME280;18200;48.726;8.892;2023-05-23T12:29:13;96888.00;;;30.27;30.51
31595;BME280;18200;48.726;8.892;2023-05-23T12:33:13;96882.31;;;29.43;32.12
31595;BME280;18200;48.726;8.892;2023-05-23T12:37:15;96894.63;;;28.89;32.69
31595;BME280;18200;48.726;8.892;2023-05-23T12:41:17;96888.19;;;30.38;30.27
31595;BME280;18200;48.726;8.892;2023-05-23T12:45:32;96874.66;;;31.52;29.51
31595;BME280;18200;48.726;8.892;2023-05-23T12:49:37;96883.69;;;32.41;28.72
31595;BME280;18200;48.726;8.892;2023-05-23T12:53:37;96873.78;;;32.82;27.65
31595;BME280;18200;48.726;8.892;2023-05-23T12:57:38;96878.91;;;31.02;29.87
31595;BME280;18200;48.726;8.892;2023-05-23T13:01:38;96880.81;;;29.57;31.62
31595;BME280;18200;48.726;8.892;2023-05-23T13:05:39;96861.91;;;33.79;27.38
31595;BME280;18200;48.726;8.892;2023-05-23T13:09:39;96874.66;;;30.11;30.17
31595;BME280;18200;48.726;8.892;2023-05-23T13:13:40;96857.03;;;31.35;29.40
31595;BME280;18200;48.726;8.892;2023-05-23T13:17:41;96858.91;;;31.69;28.34
31595;BME280;18200;48.726;8.892;2023-05-23T13:21:41;96862.66;;;30.54;29.74
31595;BME280;18200;48.726;8.892;2023-05-23T13:25:42;96865.72;;;30.36;30.67
31595;BME280;18200;48.726;8.892;2023-05-23T13:29:42;96870.22;;;30.34;31.78
31595;BME280;18200;48.726;8.892;2023-05-23T13:33:43;96867.03;;;29.62;32.95
31595;BME280;18200;48.726;8.892;2023-05-23T13:37:43;96886.13;;;30.04;32.98
31595;BME280;18200;48.726;8.892;2023-05-23T13:41:44;96885.69;;;28.47;35.17
31595;BME280;18200;48.726;8.892;2023-05-23T13:45:44;96883.97;;;29.11;33.75
31595;BME280;18200;48.726;8.892;2023-05-23T13:49:46;96879.19;;;28.97;34.68
31595;BME280;18200;48.726;8.892;2023-05-23T13:53:47;96882.69;;;28.60;34.67
31595;BME280;18200;48.726;8.892;2023-05-23T13:57:48;96879.41;;;29.08;34.21
31595;BME280;18200;48.726;8.892;2023-05-23T14:01:48;96875.47;;;29.82;32.31
31595;BME280;18200;48.726;8.892;2023-05-23T14:05:49;96874.66;;;30.11;32.68
31595;BME280;18200;48.726;8.892;2023-05-23T14:09:49;96882.50;;;30.67;31.99
31595;BME280;18200;48.726;8.892;2023-05-23T14:13:49;96879.59;;;30.36;32.00
31595;BME280;18200;48.726;8.892;2023-05-23T14:17:50;96884.28;;;31.31;30.83
31595;BME280;18200;48.726;8.892;2023-05-23T14:21:54;96883.13;;;30.57;32.08
31595;BME280;18200;48.726;8.892;2023-05-23T14:25:54;96879.59;;;30.36;31.75
31595;BME280;18200;48.726;8.892;2023-05-23T14:29:55;96875.66;;;31.49;30.59
31595;BME280;18200;48.726;8.892;2023-05-23T14:33:55;96867.44;;;32.70;28.56
31595;BME280;18200;48.726;8.892;2023-05-23T14:37:56;96874.75;;;31.63;30.01
31595;BME280;18200;48.726;8.892;2023-05-23T14:41:56;96880.13;;;31.21;31.23
31595;BME280;18200;48.726;8.892;2023-05-23T14:45:58;96876.13;;;30.82;31.00
31595;BME280;18200;48.726;8.892;2023-05-23T14:49:58;96852.53;;;32.31;28.83
31595;BME280;18200;48.726;8.892;2023-05-23T14:53:59;96861.31;;;30.30;31.41
31595;BME280;18200;48.726;8.892;2023-05-23T14:57:59;96863.22;;;29.89;32.49
31595;BME280;18200;48.726;8.892;2023-05-23T15:02:01;96865.72;;;30.36;32.38
31595;BME280;18200;48.726;8.892;2023-05-23T15:06:02;96867.19;;;30.17;32.73
31595;BME280;18200;48.726;8.892;2023-05-23T15:10:04;96861.78;;;31.29;30.87
31595;BME280;18200;48.726;8.892;2023-05-23T15:14:05;96861.28;;;30.44;31.27
31595;BME280;18200;48.726;8.892;2023-05-23T15:18:06;96859.47;;;30.41;30.65
31595;BME280;18200;48.726;8.892;2023-05-23T15:22:08;96850.13;;;31.45;28.51
31595;BME280;18200;48.726;8.892;2023-05-23T15:26:09;96849.66;;;32.57;28.41
31595;BME280;18200;48.726;8.892;2023-05-23T15:30:10;96864.53;;;30.08;32.08
31595;BME280;18200;48.726;8.892;2023-05-23T15:34:10;96853.44;;;31.29;31.04
31595;BME280;18200;48.726;8.892;2023-05-23T15:38:10;96847.69;;;31.89;29.86
31595;BME280;18200;48.726;8.892;2023-05-23T15:42:11;96865.31;;;30.63;31.40
31595;BME280;18200;48.726;8.892;2023-05-23T15:46:11;96856.72;;;33.11;28.34
31595;BME280;18200;48.726;8.892;2023-05-23T15:50:11;96860.41;;;30.93;30.70
31595;BME280;18200;48.726;8.892;2023-05-23T15:54:13;96856.06;;;31.12;30.21
31595;BME280;18200;48.726;8.892;2023-05-23T15:58:13;96851.13;;;32.04;29.24
31595;BME280;18200;48.726;8.892;2023-05-23T16:02:14;96852.84;;;32.44;28.69
31595;BME280;18200;48.726;8.892;2023-05-23T16:06:15;96853.28;;;31.12;30.11
31595;BME280;18200;48.726;8.892;2023-05-23T16:10:16;96863.41;;;30.00;32.29
31595;BME280;18200;48.726;8.892;2023-05-23T16:14:16;96864.22;;;32.41;28.91
31595;BME280;18200;48.726;8.892;2023-05-23T16:18:16;96866.84;;;31.05;30.57
31595;BME280;18200;48.726;8.892;2023-05-23T16:22:17;96856.31;;;30.69;31.43
31595;BME280;18200;48.726;8.892;2023-05-23T16:26:17;96851.63;;;30.80;31.58
31595;BME280;18200;48.726;8.892;2023-05-23T16:30:18;96856.34;;;31.14;31.07
31595;BME280;18200;48.726;8.892;2023-05-23T16:34:19;96849.63;;;32.09;29.62
31595;BME280;18200;48.726;8.892;2023-05-23T16:38:19;96844.34;;;31.49;30.91
31595;BME280;18200;48.726;8.892;2023-05-23T16:42:20;96856.06;;;29.53;33.50
31595;BME280;18200;48.726;8.892;2023-05-23T16:46:21;96855.34;;;30.51;32.67
31595;BME280;18200;48.726;8.892;2023-05-23T16:50:21;96859.38;;;30.01;33.58
31595;BME280;18200;48.726;8.892;2023-05-23T16:54:22;96842.97;;;29.54;34.06
31595;BME280;18200;48.726;8.892;2023-05-23T16:58:22;96847.78;;;29.39;34.12
31595;BME280;18200;48.726;8.892;2023-05-23T17:02:23;96851.47;;;29.79;33.36
31595;BME280;18200;48.726;8.892;2023-05-23T17:06:23;96849.66;;;28.80;34.77
31595;BME280;18200;48.726;8.892;2023-05-23T17:10:23;96845.84;;;28.30;35.57
31595;BME280;18200;48.726;8.892;2023-05-23T17:14:24;96854.22;;;28.12;35.34
31595;BME280;18200;48.726;8.892;2023-05-23T17:18:24;96855.41;;;28.20;35.12
31595;BME280;18200;48.726;8.892;2023-05-23T17:22:24;96857.91;;;28.65;34.35
31595;BME280;18200;48.726;8.892;2023-05-23T17:26:25;96864.03;;;28.69;34.15
31595;BME280;18200;48.726;8.892;2023-05-23T17:30:26;96859.13;;;29.84;32.59
31595;BME280;18200;48.726;8.892;2023-05-23T17:34:27;96861.66;;;29.00;34.12
31595;BME280;18200;48.726;8.892;2023-05-23T17:38:27;96869.06;;;29.62;33.25
31595;BME280;18200;48.726;8.892;2023-05-23T17:42:28;96867.72;;;29.86;32.61
31595;BME280;18200;48.726;8.892;2023-05-23T17:46:28;96878.09;;;28.57;35.02
31595;BME280;18200;48.726;8.892;2023-05-23T17:50:28;96875.66;;;27.84;35.85
31595;BME280;18200;48.726;8.892;2023-05-23T17:54:29;96875.75;;;28.08;35.55
31595;BME280;18200;48.726;8.892;2023-05-23T17:58:30;96885.47;;;28.27;34.74
31595;BME280;18200;48.726;8.892;2023-05-23T18:02:31;96883.56;;;28.09;35.18
31595;BME280;18200;48.726;8.892;2023-05-23T18:06:31;96895.28;;;28.61;34.60
31595;BME280;18200;48.726;8.892;2023-05-23T18:10:32;96898.81;;;27.87;36.17
31595;BME280;18200;48.726;8.892;2023-05-23T18:14:32;96892.09;;;27.79;36.43
31595;BME280;18200;48.726;8.892;2023-05-23T18:18:32;96895.75;;;27.85;35.93
31595;BME280;18200;48.726;8.892;2023-05-23T18:22:33;96906.94;;;25.96;39.21
31595;BME280;18200;48.726;8.892;2023-05-23T18:26:34;96904.53;;;26.56;38.21
31595;BME280;18200;48.726;8.892;2023-05-23T18:30:39;96920.69;;;27.57;36.41
31595;BME280;18200;48.726;8.892;2023-05-23T18:34:40;96921.00;;;26.96;37.61
31595;BME280;18200;48.726;8.892;2023-05-23T18:38:40;96918.84;;;26.82;37.60
31595;BME280;18200;48.726;8.892;2023-05-23T18:42:41;96918.56;;;27.25;37.06
31595;BME280;18200;48.726;8.892;2023-05-23T18:46:41;96918.56;;;27.52;36.18
31595;BME280;18200;48.726;8.892;2023-05-23T18:50:42;96921.47;;;27.13;37.15
31595;BME280;18200;48.726;8.892;2023-05-23T18:54:42;96926.84;;;27.25;36.84
31595;BME280;18200;48.726;8.892;2023-05-23T18:58:43;96932.47;;;27.67;36.38
31595;BME280;18200;48.726;8.892;2023-05-23T19:02:43;96929.16;;;27.09;37.60
31595;BME280;18200;48.726;8.892;2023-05-23T19:06:44;96943.22;;;27.29;36.58
31595;BME280;18200;48.726;8.892;2023-05-23T19:10:45;96955.88;;;26.72;37.95
31595;BME280;18200;48.726;8.892;2023-05-23T19:14:46;96961.97;;;26.67;38.24
31595;BME280;18200;48.726;8.892;2023-05-23T19:18:54;96966.56;;;26.61;38.41
31595;BME280;18200;48.726;8.892;2023-05-23T19:22:55;96970.97;;;26.49;38.41
31595;BME280;18200;48.726;8.892;2023-05-23T19:26:58;96973.25;;;26.42;38.52
31595;BME280;18200;48.726;8.892;2023-05-23T19:31:01;96983.72;;;26.65;38.09
31595;BME280;18200;48.726;8.892;2023-05-23T19:35:02;96984.91;;;26.95;37.30
31595;BME280;18200;48.726;8.892;2023-05-23T19:39:05;96988.13;;;27.02;37.16
31595;BME280;18200;48.726;8.892;2023-05-23T19:43:09;96995.69;;;26.62;38.14
31595;BME280;18200;48.726;8.892;2023-05-23T19:47:10;96992.34;;;28.30;34.91
31595;BME280;18200;48.726;8.892;2023-05-23T19:51:11;97005.03;;;27.77;35.41
31595;BME280;18200;48.726;8.892;2023-05-23T19:55:23;96998.00;;;27.57;36.49
31595;BME280;18200;48.726;8.892;2023-05-23T19:59:30;97005.25;;;26.79;37.47
31595;BME280;18200;48.726;8.892;2023-05-23T20:03:37;97005.78;;;26.65;37.86
31595;BME280;18200;48.726;8.892;2023-05-23T20:07:52;97015.25;;;27.04;36.54
31595;BME280;18200;48.726;8.892;2023-05-23T20:11:52;97006.78;;;26.80;37.07
31595;BME280;18200;48.726;8.892;2023-05-23T20:15:58;97023.13;;;27.41;35.69
31595;BME280;18200;48.726;8.892;2023-05-23T20:20:07;97022.81;;;28.86;33.84
31595;BME280;18200;48.726;8.892;2023-05-23T20:24:11;97031.22;;;28.08;34.60
31595;BME280;18200;48.726;8.892;2023-05-23T20:28:14;97021.91;;;27.79;35.33
31595;BME280;18200;48.726;8.892;2023-05-23T20:32:15;97027.44;;;27.70;35.34
31595;BME280;18200;48.726;8.892;2023-05-23T20:36:16;97033.56;;;27.37;35.39
31595;BME280;18200;48.726;8.892;2023-05-23T20:40:19;97019.09;;;28.15;33.97
31595;BME280;18200;48.726;8.892;2023-05-23T20:44:21;97037.16;;;26.98;36.19
31595;BME280;18200;48.726;8.892;2023-05-23T20:48:22;97041.44;;;26.99;36.27
31595;BME280;18200;48.726;8.892;2023-05-23T20:52:25;97044.50;;;27.01;35.54
31595;BME280;18200;48.726;8.892;2023-05-23T20:56:26;97049.06;;;26.46;36.25
31595;BME280;18200;48.726;8.892;2023-05-23T21:00:26;97058.59;;;26.02;37.36
31595;BME280;18200;48.726;8.892;2023-05-23T21:04:33;97055.25;;;26.68;36.87
31595;BME280;18200;48.726;8.892;2023-05-23T21:08:36;97055.88;;;26.33;36.78
31595;BME280;18200;48.726;8.892;2023-05-23T21:12:39;97051.47;;;25.92;37.39
31595;BME280;18200;48.726;8.892;2023-05-23T21:16:46;97064.59;;;26.62;36.30
31595;BME280;18200;48.726;8.892;2023-05-23T21:20:46;97060.38;;;26.17;36.87
31595;BME280;18200;48.726;8.892;2023-05-23T21:24:47;97068.22;;;25.63;38.02
31595;BME280;18200;48.726;8.892;2023-05-23T21:28:47;97060.78;;;24.92;39.59
31595;BME280;18200;48.726;8.892;2023-05-23T21:32:48;97056.25;;;25.23;38.95
31595;BME280;18200;48.726;8.892;2023-05-23T21:36:48;97050.75;;;26.22;36.62
31595;BME280;18200;48.726;8.892;2023-05-23T21:40:49;97057.06;;;24.86;39.37